This is the latest recevied weather packets stored in our database for station/object DM4XI-13. If no packets are shown the sender has not sent any weather packets the latest 10 day(s).
| Time | Temp. | Humidity | Pressure | Rain* | Wind** | Luminosity | Snow |
|---|---|---|---|---|---|---|---|
| 1777462709 | 16.11° C | 26% | 1020.9 hPa | 0 mm | 2.68 m/s, 28° | 620 W/m² | - |
| 1777462648 | 16.11° C | 27% | 1020.6 hPa | 0 mm | 1.34 m/s, 3° | 620 W/m² | - |
| 1777462587 | 16.11° C | 29% | 1020.8 hPa | 0 mm | 0.45 m/s, 166° | 620 W/m² | - |
| 1777462526 | 15.56° C | 27% | 1020.8 hPa | 0 mm | 1.34 m/s, 351° | 620 W/m² | - |
| 1777462465 | 15.56° C | 27% | 1020.7 hPa | 0 mm | 1.34 m/s, 188° | 620 W/m² | - |
| 1777462404 | 15.56° C | 29% | 1020.8 hPa | 0 mm | 0.89 m/s, 359° | 620 W/m² | - |
| 1777462343 | 15.56° C | 28% | 1020.7 hPa | 0 mm | 1.79 m/s, 140° | 621 W/m² | - |
| 1777462282 | 15.56° C | 27% | 1020.8 hPa | 0 mm | 0.89 m/s, 145° | 621 W/m² | - |
| 1777462221 | 15.56° C | 28% | 1020.8 hPa | 0 mm | 0.45 m/s, 140° | 622 W/m² | - |
| 1777462160 | 15.56° C | 27% | 1021 hPa | 0 mm | 1.79 m/s, 1° | 622 W/m² | - |
| 1777462099 | 15.56° C | 27% | 1020.8 hPa | 0 mm | 1.34 m/s, 10° | 621 W/m² | - |
| 1777462038 | 15.56° C | 27% | 1021 hPa | 0 mm | 2.24 m/s, 223° | 622 W/m² | - |
| 1777461977 | 15.56° C | 28% | 1020.9 hPa | 0 mm | 0.89 m/s, 287° | 623 W/m² | - |
| 1777461916 | 15.56° C | 28% | 1020.8 hPa | 0 mm | 0.45 m/s, 215° | 622 W/m² | - |
| 1777461855 | 15.56° C | 27% | 1020.9 hPa | 0 mm | 1.79 m/s, 139° | 622 W/m² | - |
| 1777461794 | 15.56° C | 26% | 1020.9 hPa | 0 mm | 1.34 m/s, 288° | 624 W/m² | - |
| 1777461733 | 15° C | 27% | 1021 hPa | 0 mm | 1.79 m/s, 260° | 625 W/m² | - |
| 1777461672 | 15° C | 27% | 1020.7 hPa | 0 mm | 0.89 m/s, 149° | 625 W/m² | - |
| 1777461611 | 15° C | 27% | 1020.9 hPa | 0 mm | 2.68 m/s, 21° | 624 W/m² | - |
| 1777461550 | 15° C | 28% | 1020.9 hPa | 0 mm | 1.79 m/s, 128° | 624 W/m² | - |
| 1777461488 | 15.56° C | 27% | 1020.9 hPa | 0 mm | 3.13 m/s, 12° | 624 W/m² | - |
| 1777461428 | 15.56° C | 28% | 1021.1 hPa | 0 mm | 1.79 m/s, 8° | 624 W/m² | - |
| 1777461367 | 15.56° C | 26% | 1021 hPa | 0 mm | 3.58 m/s, 346° | 624 W/m² | - |
| 1777461306 | 15.56° C | 29% | 1020.9 hPa | 0 mm | 1.34 m/s, 169° | 624 W/m² | - |
| 1777461245 | 15.56° C | 29% | 1020.9 hPa | 0 mm | 1.34 m/s, 56° | 623 W/m² | - |
* Rain latest hour (hover to see other rain measurements)
** Current wind speed in m/s (hover to see current wind gust speed)